Time;durP1;ratioP1;P1;durP2;ratioP2;P2;SDS_P1;SDS_P2;PMS_P1;PMS_P2;Temp;Humidity;BMP_temperature;BMP_pressure;BME280_temperature;BME280_humidity;BME280_pressure;Samples;Min_cycle;Max_cycle;Signal;HPM_P1;HPM_P2
2023/05/18 00:01:54;;;;;;;8.73;2.97;;;;;;;5.81;93.72;99280.69;4921098;29;20823;-62
2023/05/18 00:04:46;;;;;;;10.37;3.77;;;;;;;5.76;94.81;99291.38;4917863;29;20311;-62
2023/05/18 00:07:14;;;;;;;5.73;3.30;;;;;;;5.67;95.44;99286.81;4921585;29;20290;-62
2023/05/18 00:09:41;;;;;;;9.53;3.67;;;;;;;5.64;96.60;99276.66;4901725;29;20238;-62
2023/05/18 00:12:08;;;;;;;7.40;3.23;;;;;;;5.53;97.07;99272.16;4921498;29;20243;-62
2023/05/18 00:14:35;;;;;;;6.53;3.03;;;;;;;5.47;96.91;99268.25;4918535;28;20233;-62
2023/05/18 00:17:02;;;;;;;6.83;3.17;;;;;;;5.48;96.85;99267.31;4922370;29;20230;-61
2023/05/18 00:19:28;;;;;;;10.87;3.20;;;;;;;5.40;97.10;99267.81;4918380;29;20330;-62
2023/05/18 00:21:55;;;;;;;7.17;3.03;;;;;;;5.38;97.77;99258.50;4921131;29;20231;-62
2023/05/18 00:24:29;;;;;;;7.07;3.50;;;;;;;5.40;98.17;99265.22;4918016;29;20789;-62
2023/05/18 00:26:56;;;;;;;5.77;3.00;;;;;;;5.37;97.37;99264.59;4904210;29;20245;-62
2023/05/18 00:29:28;;;;;;;7.80;3.10;;;;;;;5.37;97.08;99268.00;4918255;28;20289;-62
2023/05/18 00:31:54;;;;;;;7.37;3.30;;;;;;;5.34;97.50;99262.22;4904067;29;20231;-62
2023/05/18 00:34:27;;;;;;;6.23;3.20;;;;;;;5.34;96.14;99267.41;4910898;28;20252;-62
2023/05/18 00:36:58;;;;;;;6.97;3.23;;;;;;;5.25;96.77;99259.31;4920312;29;20234;-62
2023/05/18 00:39:46;;;;;;;10.27;3.60;;;;;;;5.30;96.10;99265.00;4795800;29;20229;-64
2023/05/18 00:42:31;;;;;;;5.83;3.03;;;;;;;5.23;95.91;99262.94;4888579;29;20238;-64
2023/05/18 00:44:58;;;;;;;7.57;3.03;;;;;;;5.27;98.46;99265.22;4907132;28;20763;-64
2023/05/18 00:47:26;;;;;;;4.83;3.10;;;;;;;5.26;98.45;99267.91;4899861;29;20581;-63
2023/05/18 00:49:53;;;;;;;11.23;3.60;;;;;;;5.22;99.62;99269.03;4905490;29;20230;-63
2023/05/18 00:52:20;;;;;;;5.03;3.00;;;;;;;5.20;100.00;99268.31;4915778;29;20318;-63
2023/05/18 00:54:53;;;;;;;9.10;3.33;;;;;;;5.20;100.00;99263.94;4921039;28;20260;-63
2023/05/18 00:57:19;;;;;;;7.67;3.40;;;;;;;5.14;100.00;99257.44;4902202;29;20239;-63
2023/05/18 00:59:47;;;;;;;10.40;3.40;;;;;;;5.08;100.00;99260.41;4919815;28;20709;-63
2023/05/18 01:02:15;;;;;;;6.97;2.80;;;;;;;5.07;100.00;99257.91;4878234;29;20408;-63
2023/05/18 01:04:42;;;;;;;8.00;3.30;;;;;;;5.02;100.00;99256.47;4897785;29;20437;-63
2023/05/18 01:07:09;;;;;;;7.60;4.10;;;;;;;4.95;100.00;99262.97;4919246;29;20239;-63
2023/05/18 01:09:36;;;;;;;9.70;3.57;;;;;;;5.00;100.00;99252.31;4901111;29;20243;-63
2023/05/18 01:12:12;;;;;;;8.00;3.97;;;;;;;5.00;100.00;99260.09;4903029;29;20294;-63
2023/05/18 01:14:44;;;;;;;6.50;2.87;;;;;;;4.91;100.00;99253.72;4918128;28;20249;-63
2023/05/18 01:17:21;;;;;;;5.80;3.13;;;;;;;4.83;100.00;99255.97;4907661;29;20765;-63
2023/05/18 01:20:15;;;;;;;10.23;3.47;;;;;;;4.77;100.00;99252.03;4923067;28;20261;-64
2023/05/18 01:23:02;;;;;;;8.37;3.20;;;;;;;4.75;100.00;99253.91;4899969;29;20275;-64
2023/05/18 01:25:35;;;;;;;11.53;3.43;;;;;;;4.78;100.00;99251.13;4876760;29;20223;-64
2023/05/18 01:28:08;;;;;;;7.40;3.53;;;;;;;4.71;100.00;99247.25;4919267;29;20227;-64
2023/05/18 01:30:38;;;;;;;8.10;3.37;;;;;;;4.69;100.00;99244.78;4917784;29;21893;-64
2023/05/18 01:36:54;;;;;;;6.87;3.70;;;;;;;4.67;100.00;99238.03;4871380;29;20235;-64
2023/05/18 01:39:58;;;;;;;6.73;3.70;;;;;;;4.61;100.00;99235.84;4903208;29;20263;-64
2023/05/18 01:42:52;;;;;;;12.33;3.30;;;;;;;4.60;100.00;99236.78;4885552;29;20228;-64
2023/05/18 01:45:31;;;;;;;8.00;3.57;;;;;;;4.54;100.00;99238.81;4896838;29;20270;-63
2023/05/18 01:48:19;;;;;;;5.20;2.90;;;;;;;4.50;100.00;99232.19;4901756;29;20241;-63
2023/05/18 01:51:13;;;;;;;7.67;3.23;;;;;;;4.51;100.00;99228.66;4880739;29;20240;-63
2023/05/18 01:54:13;;;;;;;8.17;3.50;;;;;;;4.54;100.00;99230.25;4877858;29;20255;-63
2023/05/18 01:56:59;;;;;;;10.10;3.73;;;;;;;4.50;100.00;99232.19;4899571;29;20232;-63
2023/05/18 01:59:48;;;;;;;7.80;3.43;;;;;;;4.46;100.00;99232.47;4884774;29;20294;-63
2023/05/18 02:02:42;;;;;;;7.17;3.53;;;;;;;4.38;100.00;99222.59;4900364;29;20321;-63
2023/05/18 02:05:36;;;;;;;10.70;4.00;;;;;;;4.37;100.00;99223.53;4893591;29;20454;-64
2023/05/18 02:08:08;;;;;;;13.80;5.53;;;;;;;4.43;100.00;99220.56;4883474;29;20472;-64
2023/05/18 02:10:51;;;;;;;6.57;3.23;;;;;;;4.37;100.00;99218.38;4874593;29;20223;-64
2023/05/18 02:13:29;;;;;;;7.47;3.43;;;;;;;4.38;100.00;99218.28;4878276;29;20231;-64
2023/05/18 02:16:46;;;;;;;8.90;3.67;;;;;;;4.42;100.00;99216.31;4880983;29;20616;-64
2023/05/18 02:19:37;;;;;;;13.03;3.87;;;;;;;4.40;100.00;99213.00;4867321;29;20568;-64
2023/05/18 02:35:15;;;;;;;11.63;3.63;;;;;;;4.18;100.00;99210.94;4875804;29;20277;-65
2023/05/18 02:37:52;;;;;;;6.60;3.50;;;;;;;4.14;100.00;99205.97;4892769;29;20291;-64
2023/05/18 02:43:51;;;;;;;8.23;3.43;;;;;;;4.08;100.00;99200.38;4861192;29;20228;-64
2023/05/18 02:46:52;;;;;;;9.20;3.70;;;;;;;4.01;100.00;99189.56;4863972;29;20679;-64
2023/05/18 02:49:46;;;;;;;9.83;4.13;;;;;;;3.99;100.00;99188.81;4770897;29;20236;-64
2023/05/18 02:54:58;;;;;;;8.70;4.07;;;;;;;4.19;100.00;99190.19;4882610;29;20239;-62
2023/05/18 02:57:55;;;;;;;9.30;3.90;;;;;;;4.11;100.00;99195.00;4899370;29;20243;-62
2023/05/18 03:00:33;;;;;;;8.43;3.77;;;;;;;4.22;100.00;99192.59;4883552;29;20230;-62
2023/05/18 03:03:18;;;;;;;6.97;4.10;;;;;;;4.20;100.00;99191.84;4886132;29;20257;-62
2023/05/18 03:06:12;;;;;;;10.90;3.97;;;;;;;4.18;100.00;99195.44;4867559;29;20232;-62
2023/05/18 03:09:01;;;;;;;8.03;3.50;;;;;;;4.10;100.00;99195.94;4882805;29;20663;-62
2023/05/18 03:11:42;;;;;;;8.07;3.63;;;;;;;4.07;100.00;99196.94;4897370;29;20236;-62
2023/05/18 03:14:48;;;;;;;9.70;4.33;;;;;;;4.19;100.00;99195.38;4883033;29;20334;-62
2023/05/18 03:17:25;;;;;;;8.63;4.17;;;;;;;4.14;100.00;99193.06;4895691;29;20247;-62
2023/05/18 03:20:14;;;;;;;12.43;4.53;;;;;;;4.08;100.00;99188.25;4896735;29;20238;-62
2023/05/18 03:22:53;;;;;;;9.47;3.97;;;;;;;4.12;100.00;99186.34;4870704;29;20235;-62
2023/05/18 03:25:31;;;;;;;8.90;3.93;;;;;;;4.09;100.00;99189.09;4879759;29;20368;-62
2023/05/18 03:31:00;;;;;;;8.03;3.70;;;;;;;4.10;100.00;99183.00;5079118;23;20230;-65
2023/05/18 03:33:42;;;;;;;7.17;4.20;;;;;;;4.19;100.00;99189.34;4917914;28;20226;-65
2023/05/18 03:36:37;;;;;;;10.07;4.13;;;;;;;4.32;100.00;99179.91;4920247;29;20238;-63
2023/05/18 03:39:27;;;;;;;10.93;4.27;;;;;;;4.64;100.00;99195.13;4937091;28;20223;-62
2023/05/18 03:42:02;;;;;;;7.47;3.77;;;;;;;4.72;100.00;99194.63;4925076;28;20233;-62
2023/05/18 03:44:53;;;;;;;9.30;3.77;;;;;;;4.63;100.00;99195.19;4891775;29;20578;-62
2023/05/18 03:47:46;;;;;;;8.07;3.67;;;;;;;4.54;100.00;99197.44;4916862;28;20231;-62
2023/05/18 03:50:34;;;;;;;8.80;3.60;;;;;;;4.51;100.00;99196.84;4900368;29;20232;-62
2023/05/18 03:53:10;;;;;;;6.23;3.60;;;;;;;4.44;100.00;99193.78;4923103;28;20238;-62
2023/05/18 03:55:56;;;;;;;12.27;3.83;;;;;;;4.51;100.00;99202.81;4920173;29;20236;-62
2023/05/18 03:58:45;;;;;;;7.63;4.00;;;;;;;4.52;100.00;99204.47;4919281;29;20721;-62
2023/05/18 04:01:24;;;;;;;8.53;3.53;;;;;;;4.47;100.00;99203.94;4922799;29;20227;-62
2023/05/18 04:04:44;;;;;;;10.03;4.37;;;;;;;4.50;100.00;99211.50;4920446;29;20442;-62
2023/05/18 04:07:27;;;;;;;10.60;3.87;;;;;;;4.53;100.00;99213.06;4879336;29;20250;-62
2023/05/18 04:10:54;;;;;;;7.10;3.73;;;;;;;4.48;100.00;99208.19;4918408;29;20298;-62
2023/05/18 04:16:30;;;;;;;11.27;3.67;;;;;;;4.54;100.00;99217.31;4885168;29;20231;-62
2023/05/18 04:22:23;;;;;;;9.23;3.57;;;;;;;4.53;100.00;99219.06;4882940;28;20307;-62
2023/05/18 04:34:34;;;;;;;11.13;4.03;;;;;;;4.71;100.00;99219.66;4900091;29;20231;-62
2023/05/18 04:40:49;;;;;;;8.20;4.03;;;;;;;4.76;100.00;99232.28;4908168;29;20231;-62
2023/05/18 04:43:25;;;;;;;5.80;3.47;;;;;;;4.73;100.00;99229.88;4897820;29;20230;-62
2023/05/18 04:46:07;;;;;;;9.53;4.20;;;;;;;4.75;100.00;99234.97;4904423;29;20341;-62
2023/05/18 04:49:20;;;;;;;12.27;7.90;;;;;;;4.75;100.00;99240.97;4916994;29;20223;-62
2023/05/18 04:51:57;;;;;;;10.57;5.03;;;;;;;4.75;100.00;99245.31;4918731;28;20868;-62
2023/05/18 04:58:06;;;;;;;8.77;6.30;;;;;;;4.73;100.00;99237.66;4901132;29;20265;-62
2023/05/18 05:01:38;;;;;;;12.47;5.47;;;;;;;4.78;100.00;99238.19;4908429;29;20330;-62
2023/05/18 05:08:07;;;;;;;13.60;5.53;;;;;;;4.79;100.00;99234.66;4805958;29;20235;-62
2023/05/18 05:17:54;;;;;;;;;;;;;;;;;;;;;
2023/05/18 05:20:47;;;;;;;8.13;3.90;;;;;;;4.91;100.00;99237.41;4782091;29;20279;-62
2023/05/18 05:23:33;;;;;;;13.87;4.93;;;;;;;4.98;100.00;99236.06;4789701;29;20243;-62
2023/05/18 05:26:11;;;;;;;8.53;4.77;;;;;;;5.00;100.00;99239.38;4808111;29;20760;-62
2023/05/18 05:32:56;;;;;;;14.77;5.23;;;;;;;5.42;100.00;99242.63;4887917;29;20332;-62
2023/05/18 05:39:56;;;;;;;9.83;4.17;;;;;;;6.77;85.16;99248.13;4913843;29;20716;-62
2023/05/18 05:42:49;;;;;;;8.20;3.70;;;;;;;7.14;81.93;99249.78;4882784;29;20262;-62
2023/05/18 05:49:30;;;;;;;11.30;4.40;;;;;;;7.57;78.71;99248.34;4898853;29;20722;-62
2023/05/18 05:59:09;;;;;;;7.97;3.70;;;;;;;8.09;77.28;99251.31;4898662;29;20720;-63
2023/05/18 06:02:05;;;;;;;8.53;3.40;;;;;;;8.20;77.69;99251.28;4920021;28;20247;-63
2023/05/18 06:04:32;;;;;;;9.13;3.60;;;;;;;8.45;76.01;99253.75;4892596;29;20238;-63
2023/05/18 06:06:59;;;;;;;12.33;3.60;;;;;;;8.64;73.84;99256.56;4924899;28;20241;-63
2023/05/18 06:09:29;;;;;;;7.27;3.37;;;;;;;8.77;73.34;99256.41;4900017;29;20225;-63
2023/05/18 06:11:57;;;;;;;15.73;4.17;;;;;;;8.90;72.75;99258.84;4899933;29;20327;-63
2023/05/18 06:14:28;;;;;;;15.90;4.80;;;;;;;9.06;73.59;99260.19;4906041;29;20699;-63
2023/05/18 06:16:57;;;;;;;9.10;3.20;;;;;;;9.16;71.33;99254.09;4906342;29;21628;-63
2023/05/18 06:19:28;;;;;;;16.53;7.67;;;;;;;9.28;73.18;99265.31;4900855;29;20640;-63
2023/05/18 06:21:54;;;;;;;9.57;4.20;;;;;;;9.51;69.61;99266.94;4921864;28;20237;-63
2023/05/18 06:24:46;;;;;;;6.93;3.20;;;;;;;9.59;69.19;99265.34;4920926;29;20252;-63
2023/05/18 06:27:47;;;;;;;8.90;3.20;;;;;;;9.82;68.08;99267.78;4880198;29;20657;-63
2023/05/18 06:30:20;;;;;;;9.37;3.37;;;;;;;9.98;66.60;99272.56;4898776;29;20233;-63
2023/05/18 06:33:06;;;;;;;8.40;2.90;;;;;;;10.19;66.50;99261.19;4903748;29;20325;-63
2023/05/18 06:35:33;;;;;;;11.07;3.63;;;;;;;10.26;65.95;99259.72;4902199;29;20249;-63
2023/05/18 06:37:59;;;;;;;8.87;3.00;;;;;;;10.38;64.97;99264.84;4907116;29;20255;-63
2023/05/18 06:40:26;;;;;;;15.20;3.33;;;;;;;10.48;64.15;99265.72;4901853;29;20226;-63
2023/05/18 06:42:54;;;;;;;7.27;3.10;;;;;;;10.52;63.59;99271.50;4923236;28;20240;-63
2023/05/18 06:45:26;;;;;;;13.60;3.60;;;;;;;10.63;64.04;99266.13;4902383;29;20230;-63
2023/05/18 06:47:55;;;;;;;10.27;3.30;;;;;;;10.70;62.66;99272.47;4921760;28;20241;-62
2023/05/18 06:50:22;;;;;;;13.17;3.10;;;;;;;10.81;63.18;99281.13;4903550;29;20321;-62
2023/05/18 06:52:50;;;;;;;7.60;3.53;;;;;;;10.85;62.51;99277.28;4921833;28;20236;-62
2023/05/18 06:55:17;;;;;;;13.43;3.27;;;;;;;10.75;61.68;99274.69;4900762;29;20232;-62
2023/05/18 06:57:43;;;;;;;11.53;3.30;;;;;;;10.81;61.81;99286.38;4921665;28;20237;-62
2023/05/18 07:00:12;;;;;;;10.13;3.20;;;;;;;10.91;61.33;99282.81;4923080;29;20233;-62
2023/05/18 07:02:42;;;;;;;8.90;2.73;;;;;;;10.95;61.16;99285.97;4918802;28;20241;-62
2023/05/18 07:05:09;;;;;;;8.68;3.28;;;;;;;11.08;59.88;99272.66;4904497;29;20576;-62
2023/05/18 07:07:36;;;;;;;13.97;3.40;;;;;;;11.10;60.22;99278.56;4919540;29;20369;-62
2023/05/18 07:10:03;;;;;;;10.23;3.10;;;;;;;11.14;58.15;99276.47;4921090;29;20315;-62
2023/05/18 07:12:30;;;;;;;6.80;3.07;;;;;;;11.34;58.21;99272.88;4918738;28;20296;-62
2023/05/18 07:14:57;;;;;;;10.57;3.30;;;;;;;11.39;57.89;99276.88;4922204;29;20697;-63
2023/05/18 07:17:25;;;;;;;9.93;3.17;;;;;;;11.59;58.03;99272.44;4919583;28;20231;-63
2023/05/18 07:19:51;;;;;;;15.27;4.03;;;;;;;11.68;57.81;99271.56;4922585;29;20240;-63
2023/05/18 07:22:18;;;;;;;13.67;3.13;;;;;;;11.66;56.39;99266.47;4920341;28;20771;-63
2023/05/18 07:24:44;;;;;;;9.50;3.00;;;;;;;11.71;56.71;99260.00;4922362;29;20543;-63
2023/05/18 07:27:11;;;;;;;11.37;3.10;;;;;;;11.75;56.06;99267.44;4922358;28;20234;-63
2023/05/18 07:29:37;;;;;;;11.93;2.90;;;;;;;11.80;56.25;99264.38;4919675;29;20233;-63
2023/05/18 07:32:04;;;;;;;12.40;2.93;;;;;;;11.98;56.53;99253.16;4921866;28;20249;-63
2023/05/18 07:34:32;;;;;;;9.60;2.73;;;;;;;12.10;55.85;99252.88;4910076;29;20316;-63
2023/05/18 07:36:59;;;;;;;11.20;3.50;;;;;;;12.26;56.33;99251.38;4920750;28;20238;-63
2023/05/18 07:39:28;;;;;;;11.30;3.00;;;;;;;12.15;54.82;99252.41;4901053;29;20231;-63
2023/05/18 07:41:55;;;;;;;10.70;3.07;;;;;;;12.36;54.20;99251.34;4921925;28;20232;-63
2023/05/18 07:44:28;;;;;;;12.10;2.90;;;;;;;12.41;54.57;99249.13;4918895;29;20328;-62
2023/05/18 07:46:55;;;;;;;9.27;3.07;;;;;;;12.39;54.55;99249.25;4921722;28;20324;-63
2023/05/18 07:49:48;;;;;;;17.93;3.40;;;;;;;12.65;55.34;99252.97;4918544;29;20370;-63
2023/05/18 07:52:14;;;;;;;11.57;3.53;;;;;;;12.67;54.64;99248.41;4921971;28;20246;-63
2023/05/18 07:54:41;;;;;;;12.13;3.13;;;;;;;12.72;54.87;99253.19;4918092;29;20254;-63
2023/05/18 07:57:07;;;;;;;8.30;3.40;;;;;;;12.74;53.70;99246.00;4921368;28;20237;-63
2023/05/18 07:59:34;;;;;;;10.37;3.93;;;;;;;12.62;54.90;99242.78;4919278;29;20237;-63
2023/05/18 08:02:00;;;;;;;7.03;3.57;;;;;;;12.73;55.01;99249.59;4921326;28;20245;-64
2023/05/18 08:04:28;;;;;;;10.40;4.30;;;;;;;12.86;54.51;99244.81;4918479;29;20237;-63
2023/05/18 08:06:59;;;;;;;8.13;3.27;;;;;;;13.00;56.14;99243.44;4921666;28;20242;-63
2023/05/18 08:09:28;;;;;;;9.57;3.27;;;;;;;13.05;54.63;99249.03;4909140;29;20314;-62
2023/05/18 08:11:55;;;;;;;7.27;3.13;;;;;;;12.92;54.24;99248.59;4918832;28;20222;-62
2023/05/18 08:14:28;;;;;;;7.17;3.30;;;;;;;12.95;54.90;99249.13;4918381;29;20589;-62
2023/05/18 08:16:54;;;;;;;14.47;3.83;;;;;;;12.92;56.01;99256.47;4921250;29;20717;-62
2023/05/18 08:19:25;;;;;;;8.40;3.20;;;;;;;12.94;56.50;99247.50;4918836;29;20234;-62
2023/05/18 08:21:52;;;;;;;12.30;3.40;;;;;;;12.82;55.50;99257.34;4921131;28;20725;-62
2023/05/18 08:24:20;;;;;;;11.90;3.33;;;;;;;12.94;56.36;99250.13;4918372;29;20623;-62
2023/05/18 08:26:46;;;;;;;7.23;3.73;;;;;;;13.03;56.32;99247.56;4921904;28;20301;-63
2023/05/18 08:29:13;;;;;;;8.67;3.40;;;;;;;13.21;56.66;99237.03;4921676;29;20285;-63
2023/05/18 08:31:40;;;;;;;12.47;3.53;;;;;;;13.40;55.92;99242.09;4906929;28;20297;-64
2023/05/18 08:34:07;;;;;;;8.57;3.17;;;;;;;13.61;56.74;99237.50;4920340;29;20235;-63
2023/05/18 08:36:35;;;;;;;8.30;3.20;;;;;;;13.66;53.10;99228.19;4918047;28;20243;-63
2023/05/18 08:39:03;;;;;;;7.77;3.13;;;;;;;13.83;53.60;99233.50;4919733;29;20321;-64
2023/05/18 08:41:35;;;;;;;10.73;3.57;;;;;;;13.91;54.61;99230.09;4897562;28;20294;-64
2023/05/18 08:44:06;;;;;;;10.83;3.20;;;;;;;13.98;52.77;99234.56;4919619;29;20236;-64
2023/05/18 08:46:35;;;;;;;7.43;3.87;;;;;;;14.08;52.70;99231.81;4901566;28;20265;-64
2023/05/18 08:49:02;;;;;;;7.23;3.20;;;;;;;14.38;53.68;99223.53;4920782;29;20632;-64
2023/05/18 08:51:33;;;;;;;13.83;3.83;;;;;;;14.60;52.12;99224.72;4918471;29;20251;-64
2023/05/18 08:54:01;;;;;;;11.20;3.80;;;;;;;14.81;54.46;99224.28;4921120;29;20289;-64
2023/05/18 08:56:33;;;;;;;9.53;3.47;;;;;;;14.73;53.25;99229.53;4918607;28;20272;-64
2023/05/18 08:59:03;;;;;;;9.53;3.50;;;;;;;14.85;52.80;99216.88;4921487;29;20236;-64
2023/05/18 09:01:30;;;;;;;10.63;3.70;;;;;;;15.01;51.62;99229.19;4917216;28;20318;-64
2023/05/18 09:03:58;;;;;;;6.67;3.00;;;;;;;15.01;53.13;99216.03;4920421;29;20241;-64
2023/05/18 09:06:25;;;;;;;7.00;3.43;;;;;;;15.11;52.26;99221.97;4917625;28;20647;-64
2023/05/18 09:08:53;;;;;;;10.47;4.10;;;;;;;14.93;49.71;99224.78;4920582;29;20289;-64
2023/05/18 09:11:21;;;;;;;8.60;3.47;;;;;;;15.19;50.16;99227.22;4917476;28;20237;-64
2023/05/18 09:13:50;;;;;;;12.20;4.27;;;;;;;15.33;50.65;99209.94;4919471;28;20240;-64
2023/05/18 09:16:17;;;;;;;8.20;3.50;;;;;;;15.47;51.55;99204.97;4917687;28;20229;-64
2023/05/18 09:18:44;;;;;;;9.20;3.50;;;;;;;15.45;50.10;99215.66;4920782;29;20241;-64
2023/05/18 09:21:11;;;;;;;7.80;3.30;;;;;;;15.18;48.51;99219.50;4919415;29;20311;-64
2023/05/18 09:23:39;;;;;;;8.63;3.70;;;;;;;15.48;47.63;99212.72;4917968;29;20243;-65
2023/05/18 09:26:08;;;;;;;7.73;3.60;;;;;;;15.68;46.63;99209.69;4920791;29;20325;-64
2023/05/18 09:28:37;;;;;;;10.13;4.27;;;;;;;15.80;45.89;99218.03;4901581;29;20242;-64
2023/05/18 09:31:07;;;;;;;10.93;4.10;;;;;;;15.63;47.91;99214.66;4903722;29;20701;-64
2023/05/18 09:33:36;;;;;;;8.57;3.63;;;;;;;15.60;47.78;99205.25;4908328;29;20234;-64
2023/05/18 09:36:05;;;;;;;7.57;3.50;;;;;;;15.63;48.73;99209.38;4920854;29;20236;-64
2023/05/18 09:38:37;;;;;;;7.93;3.90;;;;;;;15.40;46.32;99223.25;4917271;29;20239;-64
2023/05/18 09:41:08;;;;;;;8.90;3.87;;;;;;;15.55;45.91;99209.41;4919758;29;20309;-64
2023/05/18 09:43:35;;;;;;;10.63;3.60;;;;;;;15.56;47.45;99200.53;4899660;29;20248;-64
2023/05/18 09:46:07;;;;;;;13.50;4.07;;;;;;;15.39;45.63;99204.97;4920678;29;20249;-64
2023/05/18 09:48:36;;;;;;;11.33;4.13;;;;;;;15.51;47.01;99206.28;4917210;29;20626;-64
2023/05/18 09:51:05;;;;;;;7.30;3.60;;;;;;;15.60;46.34;99197.38;4920418;29;20285;-64
2023/05/18 09:53:34;;;;;;;8.83;3.73;;;;;;;15.63;45.63;99204.91;4921013;29;20237;-64
2023/05/18 09:56:04;;;;;;;8.07;3.47;;;;;;;15.85;46.90;99199.91;4923578;29;20228;-64
2023/05/18 09:58:31;;;;;;;7.60;3.70;;;;;;;15.89;45.58;99198.63;4912524;29;20724;-64
2023/05/18 10:01:01;;;;;;;8.93;3.60;;;;;;;16.10;48.23;99199.84;4923848;29;20657;-64
2023/05/18 10:03:35;;;;;;;10.10;3.77;;;;;;;16.37;45.91;99201.16;4912277;29;20234;-64
2023/05/18 10:06:04;;;;;;;7.60;3.90;;;;;;;16.42;44.21;99203.28;4923362;29;20240;-64
2023/05/18 10:08:31;;;;;;;8.23;3.40;;;;;;;16.05;44.51;99199.53;4921141;29;20236;-64
2023/05/18 10:10:58;;;;;;;8.80;3.80;;;;;;;15.86;45.00;99206.03;4923833;29;20245;-64
2023/05/18 10:13:27;;;;;;;8.33;3.50;;;;;;;16.14;45.73;99193.22;4919035;29;20228;-64
2023/05/18 10:15:55;;;;;;;8.23;4.47;;;;;;;16.20;44.79;99181.16;4923392;29;20255;-64
2023/05/18 10:18:24;;;;;;;7.23;3.17;;;;;;;16.50;45.87;99197.13;4921268;29;20241;-64
2023/05/18 10:20:55;;;;;;;7.40;4.03;;;;;;;16.60;43.77;99195.09;4923538;29;20606;-64
2023/05/18 10:23:23;;;;;;;10.20;4.03;;;;;;;16.55;46.53;99192.16;4916956;29;20244;-64
2023/05/18 10:25:51;;;;;;;11.43;4.00;;;;;;;16.17;44.63;99192.88;4923250;29;20240;-64
2023/05/18 10:28:24;;;;;;;12.57;4.20;;;;;;;15.49;45.40;99193.31;4919389;29;20226;-64
2023/05/18 10:30:53;;;;;;;8.73;3.37;;;;;;;15.95;47.22;99197.09;4923244;29;20251;-64
2023/05/18 10:33:22;;;;;;;5.67;3.60;;;;;;;15.94;44.82;99203.34;4920460;29;20724;-64
2023/05/18 10:35:49;;;;;;;9.90;3.77;;;;;;;15.83;45.39;99186.09;4922376;29;20571;-64
2023/05/18 10:38:20;;;;;;;9.13;4.20;;;;;;;16.05;47.71;99197.72;4923140;29;20244;-64
2023/05/18 10:40:49;;;;;;;9.50;3.67;;;;;;;16.09;46.62;99179.75;4919588;29;20236;-64
2023/05/18 10:43:19;;;;;;;7.87;3.50;;;;;;;16.23;46.89;99194.00;4923332;29;20721;-64
2023/05/18 10:45:47;;;;;;;6.90;3.77;;;;;;;16.41;45.39;99180.56;4920209;29;20239;-64
2023/05/18 10:48:15;;;;;;;7.17;3.90;;;;;;;16.51;45.50;99180.31;4922618;29;20886;-64
2023/05/18 10:50:42;;;;;;;10.80;3.67;;;;;;;16.52;44.42;99179.31;4919451;29;20237;-64
2023/05/18 10:53:10;;;;;;;8.30;3.87;;;;;;;16.35;44.79;99195.25;4923092;29;20255;-64
2023/05/18 10:55:38;;;;;;;8.10;3.73;;;;;;;16.18;44.69;99183.16;4893124;29;20777;-64
2023/05/18 10:58:12;;;;;;;7.13;3.67;;;;;;;16.14;45.98;99189.78;4922925;29;20232;-64
2023/05/18 11:00:46;;;;;;;7.83;4.03;;;;;;;16.08;45.07;99204.47;4909760;28;20251;-64
2023/05/18 11:03:16;;;;;;;6.17;3.47;;;;;;;16.65;45.09;99191.91;4921882;29;20488;-64
2023/05/18 11:05:43;;;;;;;5.70;3.20;;;;;;;16.34;44.45;99193.59;4911937;28;20603;-65
2023/05/18 11:08:09;;;;;;;12.23;3.33;;;;;;;16.60;44.30;99181.06;4923189;29;20246;-64
2023/05/18 11:10:41;;;;;;;8.87;3.43;;;;;;;16.99;44.70;99177.50;4919711;28;20471;-65
2023/05/18 11:13:09;;;;;;;8.57;3.30;;;;;;;16.81;42.68;99172.53;4922148;29;20240;-64
2023/05/18 11:16:08;;;;;;;8.70;3.87;;;;;;;16.91;42.92;99183.66;4918158;29;22252;-64
2023/05/18 11:18:45;;;;;;;9.53;3.83;;;;;;;17.44;44.64;99182.81;4919349;29;20234;-64
2023/05/18 11:21:50;;;;;;;9.00;3.70;;;;;;;18.09;44.88;99184.88;4922001;29;20237;-64
2023/05/18 11:24:22;;;;;;;7.40;3.17;;;;;;;18.08;41.94;99185.88;4917766;29;20277;-65
2023/05/18 11:26:53;;;;;;;11.47;3.23;;;;;;;18.14;41.31;99185.13;4920958;28;20314;-65
2023/05/18 11:29:22;;;;;;;9.10;3.30;;;;;;;17.51;42.44;99181.09;4919093;29;20235;-65
2023/05/18 11:31:50;;;;;;;6.43;3.30;;;;;;;17.07;42.45;99174.78;4921390;29;20237;-64
2023/05/18 11:34:51;;;;;;;13.83;3.40;;;;;;;16.79;43.81;99183.22;4922465;29;20804;-64
2023/05/18 11:37:37;;;;;;;9.70;3.50;;;;;;;16.52;44.29;99182.78;4822679;29;20275;-64
2023/05/18 11:40:05;;;;;;;10.93;4.00;;;;;;;16.91;44.93;99174.91;4826207;29;20249;-64
2023/05/18 11:42:34;;;;;;;9.80;3.37;;;;;;;16.99;43.51;99177.50;4879738;29;20244;-64
2023/05/18 11:45:06;;;;;;;10.53;3.57;;;;;;;16.58;43.33;99188.34;4920644;29;20332;-65
2023/05/18 11:47:35;;;;;;;7.50;3.43;;;;;;;16.81;43.48;99193.63;4917028;29;20663;-65
2023/05/18 11:50:02;;;;;;;8.27;3.13;;;;;;;17.19;45.36;99188.34;4921021;29;20319;-64
2023/05/18 11:52:29;;;;;;;8.83;3.13;;;;;;;16.86;43.29;99185.16;4918706;28;20268;-65
2023/05/18 11:54:57;;;;;;;7.53;3.10;;;;;;;16.60;44.77;99189.81;4921503;29;20937;-65
2023/05/18 11:57:26;;;;;;;7.17;3.33;;;;;;;16.18;44.66;99184.00;4908864;29;20240;-65
2023/05/18 11:59:56;;;;;;;11.60;3.20;;;;;;;16.68;45.44;99183.66;4920367;29;20243;-65
2023/05/18 12:02:26;;;;;;;9.23;3.10;;;;;;;17.04;42.97;99175.13;4917237;29;20248;-65
2023/05/18 12:04:55;;;;;;;10.73;3.47;;;;;;;17.50;42.77;99171.53;4879332;29;20242;-65
2023/05/18 12:07:23;;;;;;;7.97;3.43;;;;;;;17.46;42.99;99161.53;4913718;29;20233;-65
2023/05/18 12:09:50;;;;;;;9.13;2.90;;;;;;;17.48;42.90;99164.81;4920294;29;20244;-65
2023/05/18 12:12:19;;;;;;;9.33;2.97;;;;;;;17.19;42.92;99154.03;4916956;29;20716;-63
2023/05/18 12:14:52;;;;;;;7.77;3.07;;;;;;;16.72;44.32;99160.41;4919587;29;20777;-62
2023/05/18 12:17:20;;;;;;;8.87;3.33;;;;;;;16.64;44.50;99169.19;4915887;29;20248;-63
2023/05/18 12:19:48;;;;;;;12.67;3.50;;;;;;;16.81;44.01;99161.97;4899578;29;20236;-65
2023/05/18 12:22:16;;;;;;;11.13;3.53;;;;;;;16.76;44.03;99159.06;4908244;29;20283;-64
2023/05/18 12:24:43;;;;;;;7.50;3.20;;;;;;;16.54;44.35;99153.63;4918092;29;20252;-64
2023/05/18 12:27:11;;;;;;;8.77;3.30;;;;;;;16.80;43.32;99149.78;4920886;29;20399;-64
2023/05/18 12:29:39;;;;;;;6.47;3.30;;;;;;;17.17;44.86;99160.50;4916954;29;20234;-64
2023/05/18 12:32:08;;;;;;;9.47;3.07;;;;;;;17.16;44.03;99162.31;4919535;28;20304;-64
2023/05/18 12:34:36;;;;;;;7.47;3.10;;;;;;;17.36;42.64;99153.88;4916976;28;20324;-64
2023/05/18 12:37:03;;;;;;;7.73;3.70;;;;;;;17.03;43.41;99156.84;4920818;29;20252;-64
2023/05/18 12:39:30;;;;;;;9.43;3.10;;;;;;;17.00;44.04;99149.28;4918057;28;20285;-64
2023/05/18 12:42:09;;;;;;;7.63;2.70;;;;;;;17.76;43.30;99146.47;4920695;29;20352;-65
2023/05/18 12:44:35;;;;;;;7.77;3.27;;;;;;;18.24;40.64;99142.53;4916271;29;20249;-64
2023/05/18 12:47:02;;;;;;;7.30;2.93;;;;;;;17.89;40.21;99145.00;4920708;29;20241;-64
2023/05/18 12:49:29;;;;;;;8.63;3.10;;;;;;;17.25;42.12;99142.78;4917659;28;20224;-64
2023/05/18 12:51:57;;;;;;;10.60;3.23;;;;;;;17.28;43.22;99136.31;4920321;29;20249;-64
2023/05/18 12:54:30;;;;;;;9.23;2.90;;;;;;;16.89;42.34;99138.19;4908505;28;20237;-64
2023/05/18 12:56:59;;;;;;;10.80;3.30;;;;;;;17.09;43.22;99140.31;4921112;29;20704;-65
2023/05/18 12:59:31;;;;;;;11.50;3.37;;;;;;;17.20;42.38;99136.41;4916161;28;20221;-64
2023/05/18 13:01:58;;;;;;;11.40;2.97;;;;;;;17.45;42.12;99139.59;4901201;29;20322;-64
2023/05/18 13:04:34;;;;;;;7.97;2.80;;;;;;;17.76;41.53;99135.09;4917270;28;20252;-62
2023/05/18 13:07:02;;;;;;;10.30;3.07;;;;;;;17.82;40.71;99143.09;4919487;28;20324;-61
2023/05/18 13:09:30;;;;;;;7.60;2.80;;;;;;;17.96;40.69;99140.63;4917065;28;20970;-62
2023/05/18 13:12:01;;;;;;;6.23;2.77;;;;;;;17.61;40.34;99143.84;4920914;29;20269;-62
2023/05/18 13:14:31;;;;;;;6.20;2.77;;;;;;;18.24;40.30;99137.25;4915934;28;20236;-61
2023/05/18 13:16:58;;;;;;;6.10;2.97;;;;;;;18.28;40.53;99133.22;4919087;29;20582;-61
2023/05/18 13:19:30;;;;;;;7.37;2.80;;;;;;;18.26;39.13;99137.88;4917141;29;20646;-62
2023/05/18 13:21:58;;;;;;;10.80;3.40;;;;;;;18.12;38.70;99135.09;4920103;29;20231;-61
2023/05/18 13:24:30;;;;;;;11.50;2.90;;;;;;;17.93;39.94;99133.88;4917291;28;20218;-61
2023/05/18 13:26:57;;;;;;;10.43;3.37;;;;;;;18.46;39.39;99138.09;4922018;29;20243;-61